sensor_id;sensor_type;location;lat;lon;timestamp;temperature;humidity
7163;DHT22;3623;47.098;15.446;2023-03-12T00:01:10;3.10;98.70
7163;DHT22;3623;47.098;15.446;2023-03-12T00:03:37;3.20;98.80
7163;DHT22;3623;47.098;15.446;2023-03-12T00:06:06;3.30;99.10
7163;DHT22;3623;47.098;15.446;2023-03-12T00:08:34;3.20;99.00
7163;DHT22;3623;47.098;15.446;2023-03-12T00:11:05;3.40;99.40
7163;DHT22;3623;47.098;15.446;2023-03-12T00:13:34;3.20;99.30
7163;DHT22;3623;47.098;15.446;2023-03-12T00:16:15;3.20;99.70
7163;DHT22;3623;47.098;15.446;2023-03-12T00:18:42;3.20;99.40
7163;DHT22;3623;47.098;15.446;2023-03-12T00:21:10;3.00;99.60
7163;DHT22;3623;47.098;15.446;2023-03-12T00:23:37;2.90;99.90
7163;DHT22;3623;47.098;15.446;2023-03-12T00:26:09;2.90;99.80
7163;DHT22;3623;47.098;15.446;2023-03-12T00:28:38;2.80;99.90
7163;DHT22;3623;47.098;15.446;2023-03-12T00:31:14;2.70;99.90
7163;DHT22;3623;47.098;15.446;2023-03-12T00:33:41;2.60;99.90
7163;DHT22;3623;47.098;15.446;2023-03-12T00:36:09;2.50;99.90
7163;DHT22;3623;47.098;15.446;2023-03-12T00:38:37;2.50;99.90
7163;DHT22;3623;47.098;15.446;2023-03-12T00:41:04;2.50;99.90
7163;DHT22;3623;47.098;15.446;2023-03-12T00:43:31;2.60;99.90
7163;DHT22;3623;47.098;15.446;2023-03-12T00:46:19;2.30;99.90
7163;DHT22;3623;47.098;15.446;2023-03-12T00:48:46;2.30;99.90
7163;DHT22;3623;47.098;15.446;2023-03-12T00:51:14;2.30;99.90
7163;DHT22;3623;47.098;15.446;2023-03-12T00:53:41;2.30;99.90
7163;DHT22;3623;47.098;15.446;2023-03-12T00:56:16;2.20;99.90
7163;DHT22;3623;47.098;15.446;2023-03-12T00:58:43;2.30;99.90
7163;DHT22;3623;47.098;15.446;2023-03-12T01:01:11;2.30;99.90
7163;DHT22;3623;47.098;15.446;2023-03-12T01:03:39;2.20;99.90
7163;DHT22;3623;47.098;15.446;2023-03-12T01:06:08;2.00;99.90
7163;DHT22;3623;47.098;15.446;2023-03-12T01:08:35;2.10;99.90
7163;DHT22;3623;47.098;15.446;2023-03-12T01:11:03;1.80;99.90
7163;DHT22;3623;47.098;15.446;2023-03-12T01:13:30;2.00;99.90
7163;DHT22;3623;47.098;15.446;2023-03-12T01:16:14;1.80;99.90
7163;DHT22;3623;47.098;15.446;2023-03-12T01:18:42;1.70;99.90
7163;DHT22;3623;47.098;15.446;2023-03-12T01:21:10;1.90;99.90
7163;DHT22;3623;47.098;15.446;2023-03-12T01:23:37;1.70;99.90
7163;DHT22;3623;47.098;15.446;2023-03-12T01:26:06;1.70;99.90
7163;DHT22;3623;47.098;15.446;2023-03-12T01:28:33;1.60;99.90
7163;DHT22;3623;47.098;15.446;2023-03-12T01:31:05;2.00;99.90
7163;DHT22;3623;47.098;15.446;2023-03-12T01:33:32;1.50;99.90
7163;DHT22;3623;47.098;15.446;2023-03-12T01:36:22;1.40;99.90
7163;DHT22;3623;47.098;15.446;2023-03-12T01:38:50;1.60;99.90
7163;DHT22;3623;47.098;15.446;2023-03-12T01:41:18;1.40;99.90
7163;DHT22;3623;47.098;15.446;2023-03-12T01:43:45;1.60;99.90
7163;DHT22;3623;47.098;15.446;2023-03-12T01:46:22;1.50;99.90
7163;DHT22;3623;47.098;15.446;2023-03-12T01:48:54;1.40;99.90
7163;DHT22;3623;47.098;15.446;2023-03-12T01:51:24;1.50;99.90
7163;DHT22;3623;47.098;15.446;2023-03-12T01:53:55;1.60;99.90
7163;DHT22;3623;47.098;15.446;2023-03-12T01:56:25;1.40;99.90
7163;DHT22;3623;47.098;15.446;2023-03-12T01:58:56;1.50;99.90
7163;DHT22;3623;47.098;15.446;2023-03-12T02:01:24;1.30;99.90
7163;DHT22;3623;47.098;15.446;2023-03-12T02:03:53;1.30;99.90
7163;DHT22;3623;47.098;15.446;2023-03-12T02:06:29;1.20;99.90
7163;DHT22;3623;47.098;15.446;2023-03-12T02:09:00;1.20;99.90
7163;DHT22;3623;47.098;15.446;2023-03-12T02:11:27;1.30;99.90
7163;DHT22;3623;47.098;15.446;2023-03-12T02:14:03;1.20;99.90
7163;DHT22;3623;47.098;15.446;2023-03-12T02:16:30;1.00;99.90
7163;DHT22;3623;47.098;15.446;2023-03-12T02:18:59;0.70;99.90
7163;DHT22;3623;47.098;15.446;2023-03-12T02:21:30;0.80;99.90
7163;DHT22;3623;47.098;15.446;2023-03-12T02:24:18;0.90;99.90
7163;DHT22;3623;47.098;15.446;2023-03-12T02:26:50;0.80;99.90
7163;DHT22;3623;47.098;15.446;2023-03-12T02:29:18;1.00;99.90
7163;DHT22;3623;47.098;15.446;2023-03-12T02:31:49;1.00;99.90
7163;DHT22;3623;47.098;15.446;2023-03-12T02:34:18;0.90;99.90
7163;DHT22;3623;47.098;15.446;2023-03-12T02:36:47;0.90;99.90
7163;DHT22;3623;47.098;15.446;2023-03-12T02:39:15;1.10;99.90
7163;DHT22;3623;47.098;15.446;2023-03-12T02:41:44;0.90;99.90
7163;DHT22;3623;47.098;15.446;2023-03-12T02:44:19;0.80;99.90
7163;DHT22;3623;47.098;15.446;2023-03-12T02:46:47;0.70;99.90
7163;DHT22;3623;47.098;15.446;2023-03-12T02:49:17;0.90;99.90
7163;DHT22;3623;47.098;15.446;2023-03-12T02:51:45;0.70;99.90
7163;DHT22;3623;47.098;15.446;2023-03-12T02:54:22;0.70;99.90
7163;DHT22;3623;47.098;15.446;2023-03-12T02:56:50;0.70;99.90
7163;DHT22;3623;47.098;15.446;2023-03-12T02:59:20;0.90;99.90
7163;DHT22;3623;47.098;15.446;2023-03-12T03:01:51;0.60;99.90
7163;DHT22;3623;47.098;15.446;2023-03-12T03:04:27;0.60;99.90
7163;DHT22;3623;47.098;15.446;2023-03-12T03:06:54;0.80;99.90
7163;DHT22;3623;47.098;15.446;2023-03-12T03:09:21;0.50;99.90
7163;DHT22;3623;47.098;15.446;2023-03-12T03:11:49;0.50;99.90
7163;DHT22;3623;47.098;15.446;2023-03-12T03:14:19;0.70;99.90
7163;DHT22;3623;47.098;15.446;2023-03-12T03:16:46;0.60;99.90
7163;DHT22;3623;47.098;15.446;2023-03-12T03:19:13;0.50;99.90
7163;DHT22;3623;47.098;15.446;2023-03-12T03:21:40;0.60;99.90
7163;DHT22;3623;47.098;15.446;2023-03-12T03:24:11;0.80;99.90
7163;DHT22;3623;47.098;15.446;2023-03-12T03:26:38;0.50;99.90
7163;DHT22;3623;47.098;15.446;2023-03-12T03:29:05;0.90;99.90
7163;DHT22;3623;47.098;15.446;2023-03-12T03:31:34;0.70;99.90
7163;DHT22;3623;47.098;15.446;2023-03-12T03:34:03;0.40;99.90
7163;DHT22;3623;47.098;15.446;2023-03-12T03:36:30;0.70;99.90
7163;DHT22;3623;47.098;15.446;2023-03-12T03:38:57;0.50;99.90
7163;DHT22;3623;47.098;15.446;2023-03-12T03:41:25;0.80;99.90
7163;DHT22;3623;47.098;15.446;2023-03-12T03:43:55;0.00;99.90
7163;DHT22;3623;47.098;15.446;2023-03-12T03:46:22;-0.30;99.90
7163;DHT22;3623;47.098;15.446;2023-03-12T03:48:51;0.20;99.90
7163;DHT22;3623;47.098;15.446;2023-03-12T03:51:18;-0.20;99.90
7163;DHT22;3623;47.098;15.446;2023-03-12T03:53:45;0.40;99.90
7163;DHT22;3623;47.098;15.446;2023-03-12T03:56:16;0.50;99.90
7163;DHT22;3623;47.098;15.446;2023-03-12T03:58:43;0.20;99.90
7163;DHT22;3623;47.098;15.446;2023-03-12T04:01:11;0.00;99.90
7163;DHT22;3623;47.098;15.446;2023-03-12T04:03:39;-0.10;99.90
7163;DHT22;3623;47.098;15.446;2023-03-12T04:06:17;0.80;99.90
7163;DHT22;3623;47.098;15.446;2023-03-12T04:08:45;0.20;99.90
7163;DHT22;3623;47.098;15.446;2023-03-12T04:11:14;0.30;99.90
7163;DHT22;3623;47.098;15.446;2023-03-12T04:13:42;0.20;99.90
7163;DHT22;3623;47.098;15.446;2023-03-12T04:16:23;0.10;99.90
7163;DHT22;3623;47.098;15.446;2023-03-12T04:18:50;0.30;99.90
7163;DHT22;3623;47.098;15.446;2023-03-12T04:21:19;0.60;99.90
7163;DHT22;3623;47.098;15.446;2023-03-12T04:23:46;0.70;99.90
7163;DHT22;3623;47.098;15.446;2023-03-12T04:26:13;0.50;99.90
7163;DHT22;3623;47.098;15.446;2023-03-12T04:28:42;0.30;99.90
7163;DHT22;3623;47.098;15.446;2023-03-12T04:31:10;0.60;99.90
7163;DHT22;3623;47.098;15.446;2023-03-12T04:33:39;0.20;99.90
7163;DHT22;3623;47.098;15.446;2023-03-12T04:36:07;0.20;99.90
7163;DHT22;3623;47.098;15.446;2023-03-12T04:38:36;0.20;99.90
7163;DHT22;3623;47.098;15.446;2023-03-12T04:41:05;0.60;99.90
7163;DHT22;3623;47.098;15.446;2023-03-12T04:43:33;0.20;99.90
7163;DHT22;3623;47.098;15.446;2023-03-12T04:46:01;0.10;99.90
7163;DHT22;3623;47.098;15.446;2023-03-12T04:48:29;0.10;99.90
7163;DHT22;3623;47.098;15.446;2023-03-12T04:50:56;0.00;99.90
7163;DHT22;3623;47.098;15.446;2023-03-12T04:53:23;0.00;99.90
7163;DHT22;3623;47.098;15.446;2023-03-12T04:56:02;0.00;99.90
7163;DHT22;3623;47.098;15.446;2023-03-12T04:58:30;0.00;99.90
7163;DHT22;3623;47.098;15.446;2023-03-12T05:00:57;0.60;99.90
7163;DHT22;3623;47.098;15.446;2023-03-12T05:03:24;0.20;99.90
7163;DHT22;3623;47.098;15.446;2023-03-12T05:05:55;1.00;99.90
7163;DHT22;3623;47.098;15.446;2023-03-12T05:08:22;0.60;99.90
7163;DHT22;3623;47.098;15.446;2023-03-12T05:10:49;0.20;99.90
7163;DHT22;3623;47.098;15.446;2023-03-12T05:13:20;0.50;99.90
7163;DHT22;3623;47.098;15.446;2023-03-12T05:15:50;0.10;99.90
7163;DHT22;3623;47.098;15.446;2023-03-12T05:18:17;0.50;99.90
7163;DHT22;3623;47.098;15.446;2023-03-12T05:20:45;0.30;99.90
7163;DHT22;3623;47.098;15.446;2023-03-12T05:23:12;0.00;99.90
7163;DHT22;3623;47.098;15.446;2023-03-12T05:25:47;0.30;99.90
7163;DHT22;3623;47.098;15.446;2023-03-12T05:28:14;0.10;99.90
7163;DHT22;3623;47.098;15.446;2023-03-12T05:30:43;-0.10;99.90
7163;DHT22;3623;47.098;15.446;2023-03-12T05:33:10;-0.20;99.90
7163;DHT22;3623;47.098;15.446;2023-03-12T05:35:38;0.60;99.90
7163;DHT22;3623;47.098;15.446;2023-03-12T05:38:05;0.00;99.90
7163;DHT22;3623;47.098;15.446;2023-03-12T05:40:32;0.20;99.90
7163;DHT22;3623;47.098;15.446;2023-03-12T05:42:59;-0.20;99.90
7163;DHT22;3623;47.098;15.446;2023-03-12T05:45:28;-0.40;99.90
7163;DHT22;3623;47.098;15.446;2023-03-12T05:47:57;0.50;99.90
7163;DHT22;3623;47.098;15.446;2023-03-12T05:50:24;0.20;99.90
7163;DHT22;3623;47.098;15.446;2023-03-12T05:52:52;0.00;99.90
7163;DHT22;3623;47.098;15.446;2023-03-12T05:55:21;0.30;99.90
7163;DHT22;3623;47.098;15.446;2023-03-12T05:57:48;0.20;99.90
7163;DHT22;3623;47.098;15.446;2023-03-12T06:00:16;0.30;99.90
7163;DHT22;3623;47.098;15.446;2023-03-12T06:02:43;0.40;99.90
7163;DHT22;3623;47.098;15.446;2023-03-12T06:05:16;1.20;99.90
7163;DHT22;3623;47.098;15.446;2023-03-12T06:07:43;1.40;99.90
7163;DHT22;3623;47.098;15.446;2023-03-12T06:10:10;1.00;99.90
7163;DHT22;3623;47.098;15.446;2023-03-12T06:12:38;1.80;99.90
7163;DHT22;3623;47.098;15.446;2023-03-12T06:15:07;2.70;99.90
7163;DHT22;3623;47.098;15.446;2023-03-12T06:17:34;3.00;99.90
7163;DHT22;3623;47.098;15.446;2023-03-12T06:20:02;3.00;99.90
7163;DHT22;3623;47.098;15.446;2023-03-12T06:22:30;3.40;99.90
7163;DHT22;3623;47.098;15.446;2023-03-12T06:25:17;3.60;99.90
7163;DHT22;3623;47.098;15.446;2023-03-12T06:27:44;3.70;99.90
7163;DHT22;3623;47.098;15.446;2023-03-12T06:30:13;3.40;99.90
7163;DHT22;3623;47.098;15.446;2023-03-12T06:32:40;3.90;99.90
7163;DHT22;3623;47.098;15.446;2023-03-12T06:35:14;3.90;99.90
7163;DHT22;3623;47.098;15.446;2023-03-12T06:37:43;4.90;99.90
7163;DHT22;3623;47.098;15.446;2023-03-12T06:40:11;4.10;99.90
7163;DHT22;3623;47.098;15.446;2023-03-12T06:42:38;3.60;99.90
7163;DHT22;3623;47.098;15.446;2023-03-12T06:45:10;2.60;99.90
7163;DHT22;3623;47.098;15.446;2023-03-12T06:47:37;4.00;99.90
7163;DHT22;3623;47.098;15.446;2023-03-12T06:50:05;3.90;99.90
7163;DHT22;3623;47.098;15.446;2023-03-12T06:52:32;3.30;99.90
7163;DHT22;3623;47.098;15.446;2023-03-12T06:55:08;3.00;99.90
7163;DHT22;3623;47.098;15.446;2023-03-12T06:57:35;3.10;99.90
7163;DHT22;3623;47.098;15.446;2023-03-12T07:00:03;3.40;99.90
7163;DHT22;3623;47.098;15.446;2023-03-12T07:02:30;3.30;99.90
7163;DHT22;3623;47.098;15.446;2023-03-12T07:05:00;3.20;99.90
7163;DHT22;3623;47.098;15.446;2023-03-12T07:07:28;3.50;99.90
7163;DHT22;3623;47.098;15.446;2023-03-12T07:09:55;4.20;99.90
7163;DHT22;3623;47.098;15.446;2023-03-12T07:12:23;4.60;99.90
7163;DHT22;3623;47.098;15.446;2023-03-12T07:15:16;4.20;99.90
7163;DHT22;3623;47.098;15.446;2023-03-12T07:17:43;3.40;99.90
7163;DHT22;3623;47.098;15.446;2023-03-12T07:20:11;2.70;99.90
7163;DHT22;3623;47.098;15.446;2023-03-12T07:22:38;2.20;99.90
7163;DHT22;3623;47.098;15.446;2023-03-12T07:25:06;2.20;99.90
7163;DHT22;3623;47.098;15.446;2023-03-12T07:27:35;2.30;99.90
7163;DHT22;3623;47.098;15.446;2023-03-12T07:30:03;2.60;99.90
7163;DHT22;3623;47.098;15.446;2023-03-12T07:32:30;2.80;99.90
7163;DHT22;3623;47.098;15.446;2023-03-12T07:35:00;2.70;99.90
7163;DHT22;3623;47.098;15.446;2023-03-12T07:37:27;2.70;99.90
7163;DHT22;3623;47.098;15.446;2023-03-12T07:39:54;2.80;99.90
7163;DHT22;3623;47.098;15.446;2023-03-12T07:42:21;3.30;99.90
7163;DHT22;3623;47.098;15.446;2023-03-12T07:44:54;4.20;99.90
7163;DHT22;3623;47.098;15.446;2023-03-12T07:47:21;4.30;99.90
7163;DHT22;3623;47.098;15.446;2023-03-12T07:49:48;4.00;99.90
7163;DHT22;3623;47.098;15.446;2023-03-12T07:52:15;4.20;99.90
7163;DHT22;3623;47.098;15.446;2023-03-12T07:54:45;4.10;99.90
7163;DHT22;3623;47.098;15.446;2023-03-12T07:57:12;3.70;99.90
7163;DHT22;3623;47.098;15.446;2023-03-12T07:59:39;3.50;99.90
7163;DHT22;3623;47.098;15.446;2023-03-12T08:02:08;3.00;99.90
7163;DHT22;3623;47.098;15.446;2023-03-12T08:04:36;2.60;99.90
7163;DHT22;3623;47.098;15.446;2023-03-12T08:07:03;2.70;99.90
7163;DHT22;3623;47.098;15.446;2023-03-12T08:09:30;2.70;99.90
7163;DHT22;3623;47.098;15.446;2023-03-12T08:11:58;2.80;99.90
7163;DHT22;3623;47.098;15.446;2023-03-12T08:14:25;2.80;99.90
7163;DHT22;3623;47.098;15.446;2023-03-12T08:16:56;2.90;99.90
7163;DHT22;3623;47.098;15.446;2023-03-12T08:19:25;3.40;99.90
7163;DHT22;3623;47.098;15.446;2023-03-12T08:21:53;2.90;99.90
7163;DHT22;3623;47.098;15.446;2023-03-12T08:24:22;2.80;99.90
7163;DHT22;3623;47.098;15.446;2023-03-12T08:26:50;2.80;99.90
7163;DHT22;3623;47.098;15.446;2023-03-12T08:29:17;3.00;99.90
7163;DHT22;3623;47.098;15.446;2023-03-12T08:31:44;3.30;99.90
7163;DHT22;3623;47.098;15.446;2023-03-12T08:34:12;3.50;99.90
7163;DHT22;3623;47.098;15.446;2023-03-12T08:36:40;3.60;99.90
7163;DHT22;3623;47.098;15.446;2023-03-12T08:39:07;3.50;99.90
7163;DHT22;3623;47.098;15.446;2023-03-12T08:41:34;3.50;99.90
7163;DHT22;3623;47.098;15.446;2023-03-12T08:44:01;3.40;99.90
7163;DHT22;3623;47.098;15.446;2023-03-12T08:46:28;3.80;99.90
7163;DHT22;3623;47.098;15.446;2023-03-12T08:48:56;3.70;99.90
7163;DHT22;3623;47.098;15.446;2023-03-12T08:51:23;3.70;99.90
7163;DHT22;3623;47.098;15.446;2023-03-12T08:53:51;4.00;99.90
7163;DHT22;3623;47.098;15.446;2023-03-12T08:56:18;4.10;99.90
7163;DHT22;3623;47.098;15.446;2023-03-12T08:58:45;4.20;99.90
7163;DHT22;3623;47.098;15.446;2023-03-12T09:01:13;4.50;99.90
7163;DHT22;3623;47.098;15.446;2023-03-12T09:03:40;4.60;99.90
7163;DHT22;3623;47.098;15.446;2023-03-12T09:06:10;4.70;99.90
7163;DHT22;3623;47.098;15.446;2023-03-12T09:08:38;5.10;99.90
7163;DHT22;3623;47.098;15.446;2023-03-12T09:11:08;5.50;99.90
7163;DHT22;3623;47.098;15.446;2023-03-12T09:13:35;5.30;99.90
7163;DHT22;3623;47.098;15.446;2023-03-12T09:16:05;4.90;99.90
7163;DHT22;3623;47.098;15.446;2023-03-12T09:18:33;4.90;99.90
7163;DHT22;3623;47.098;15.446;2023-03-12T09:21:00;4.90;99.90
7163;DHT22;3623;47.098;15.446;2023-03-12T09:23:28;4.80;99.90
7163;DHT22;3623;47.098;15.446;2023-03-12T09:25:55;4.90;99.90
7163;DHT22;3623;47.098;15.446;2023-03-12T09:28:24;5.20;99.90
7163;DHT22;3623;47.098;15.446;2023-03-12T09:30:51;5.20;99.90
7163;DHT22;3623;47.098;15.446;2023-03-12T09:33:19;5.20;99.90
7163;DHT22;3623;47.098;15.446;2023-03-12T09:35:55;5.20;99.90
7163;DHT22;3623;47.098;15.446;2023-03-12T09:38:22;5.70;99.90
7163;DHT22;3623;47.098;15.446;2023-03-12T09:40:49;6.10;99.90
7163;DHT22;3623;47.098;15.446;2023-03-12T09:43:21;5.90;99.90
7163;DHT22;3623;47.098;15.446;2023-03-12T09:45:55;5.90;99.90
7163;DHT22;3623;47.098;15.446;2023-03-12T09:48:30;5.90;99.90
7163;DHT22;3623;47.098;15.446;2023-03-12T09:51:02;6.10;99.90
7163;DHT22;3623;47.098;15.446;2023-03-12T09:53:33;6.40;99.90
7163;DHT22;3623;47.098;15.446;2023-03-12T09:56:03;7.10;99.90
7163;DHT22;3623;47.098;15.446;2023-03-12T09:58:35;6.90;99.90
7163;DHT22;3623;47.098;15.446;2023-03-12T10:01:21;6.70;99.90
7163;DHT22;3623;47.098;15.446;2023-03-12T10:06:47;6.70;99.90
7163;DHT22;3623;47.098;15.446;2023-03-12T10:12:23;7.70;99.90
7163;DHT22;3623;47.098;15.446;2023-03-12T10:15:05;8.40;99.90
7163;DHT22;3623;47.098;15.446;2023-03-12T10:17:43;8.40;99.90
7163;DHT22;3623;47.098;15.446;2023-03-12T10:20:25;7.70;99.90
7163;DHT22;3623;47.098;15.446;2023-03-12T10:22:58;7.80;99.90
7163;DHT22;3623;47.098;15.446;2023-03-12T10:25:29;8.00;99.90
7163;DHT22;3623;47.098;15.446;2023-03-12T10:28:05;8.20;99.90
7163;DHT22;3623;47.098;15.446;2023-03-12T10:30:40;8.30;99.90
7163;DHT22;3623;47.098;15.446;2023-03-12T10:33:12;8.50;99.90
7163;DHT22;3623;47.098;15.446;2023-03-12T10:35:41;8.00;99.90
7163;DHT22;3623;47.098;15.446;2023-03-12T10:38:12;8.30;99.90
7163;DHT22;3623;47.098;15.446;2023-03-12T10:40:40;8.80;99.90
7163;DHT22;3623;47.098;15.446;2023-03-12T10:43:07;8.80;99.80
7163;DHT22;3623;47.098;15.446;2023-03-12T10:45:39;9.20;99.70
7163;DHT22;3623;47.098;15.446;2023-03-12T10:48:11;9.40;99.10
7163;DHT22;3623;47.098;15.446;2023-03-12T10:51:00;9.80;99.60
7163;DHT22;3623;47.098;15.446;2023-03-12T10:53:28;10.90;99.10
7163;DHT22;3623;47.098;15.446;2023-03-12T10:55:59;11.50;97.80
7163;DHT22;3623;47.098;15.446;2023-03-12T10:58:31;11.80;98.30
7163;DHT22;3623;47.098;15.446;2023-03-12T11:01:01;11.80;98.00
7163;DHT22;3623;47.098;15.446;2023-03-12T11:03:30;11.80;96.80
7163;DHT22;3623;47.098;15.446;2023-03-12T11:06:00;11.00;96.60
7163;DHT22;3623;47.098;15.446;2023-03-12T11:08:29;10.40;97.10
7163;DHT22;3623;47.098;15.446;2023-03-12T11:10:58;10.40;96.80
7163;DHT22;3623;47.098;15.446;2023-03-12T11:13:30;10.30;96.30
7163;DHT22;3623;47.098;15.446;2023-03-12T11:15:59;9.80;97.10
7163;DHT22;3623;47.098;15.446;2023-03-12T11:18:33;10.60;97.20
7163;DHT22;3623;47.098;15.446;2023-03-12T11:21:16;10.70;96.20
7163;DHT22;3623;47.098;15.446;2023-03-12T11:23:46;10.30;96.70
7163;DHT22;3623;47.098;15.446;2023-03-12T11:26:31;10.20;97.90
7163;DHT22;3623;47.098;15.446;2023-03-12T11:29:02;9.50;98.20
7163;DHT22;3623;47.098;15.446;2023-03-12T11:31:34;9.10;98.70
7163;DHT22;3623;47.098;15.446;2023-03-12T11:34:07;8.70;98.20
7163;DHT22;3623;47.098;15.446;2023-03-12T11:36:44;8.80;98.50
7163;DHT22;3623;47.098;15.446;2023-03-12T11:39:21;9.10;98.80
7163;DHT22;3623;47.098;15.446;2023-03-12T11:42:04;9.00;98.10
7163;DHT22;3623;47.098;15.446;2023-03-12T11:44:38;9.30;98.30
7163;DHT22;3623;47.098;15.446;2023-03-12T11:47:17;9.20;98.20
7163;DHT22;3623;47.098;15.446;2023-03-12T11:50:00;9.30;98.00
7163;DHT22;3623;47.098;15.446;2023-03-12T11:52:35;10.30;97.10
7163;DHT22;3623;47.098;15.446;2023-03-12T11:55:31;10.40;97.60
7163;DHT22;3623;47.098;15.446;2023-03-12T11:58:10;11.00;97.40
7163;DHT22;3623;47.098;15.446;2023-03-12T12:00:49;12.30;97.30
7163;DHT22;3623;47.098;15.446;2023-03-12T12:03:38;13.80;97.00
7163;DHT22;3623;47.098;15.446;2023-03-12T12:06:16;13.60;95.20
7163;DHT22;3623;47.098;15.446;2023-03-12T12:08:59;13.00;95.00
7163;DHT22;3623;47.098;15.446;2023-03-12T12:11:37;12.60;95.80
7163;DHT22;3623;47.098;15.446;2023-03-12T12:14:19;13.70;95.00
7163;DHT22;3623;47.098;15.446;2023-03-12T12:16:58;13.90;95.30
7163;DHT22;3623;47.098;15.446;2023-03-12T12:19:35;13.30;94.90
7163;DHT22;3623;47.098;15.446;2023-03-12T12:22:22;14.00;94.70
7163;DHT22;3623;47.098;15.446;2023-03-12T12:28:07;14.60;94.40
7163;DHT22;3623;47.098;15.446;2023-03-12T12:30:49;14.60;94.30
7163;DHT22;3623;47.098;15.446;2023-03-12T12:33:31;12.90;94.20
7163;DHT22;3623;47.098;15.446;2023-03-12T12:36:01;13.20;95.60
7163;DHT22;3623;47.098;15.446;2023-03-12T12:38:34;13.60;95.20
7163;DHT22;3623;47.098;15.446;2023-03-12T12:41:08;13.20;94.90
7163;DHT22;3623;47.098;15.446;2023-03-12T12:43:37;12.70;95.20
7163;DHT22;3623;47.098;15.446;2023-03-12T12:46:08;12.60;95.20
7163;DHT22;3623;47.098;15.446;2023-03-12T12:48:38;12.60;95.00
7163;DHT22;3623;47.098;15.446;2023-03-12T12:51:07;13.10;95.60
7163;DHT22;3623;47.098;15.446;2023-03-12T12:53:42;13.30;95.40
7163;DHT22;3623;47.098;15.446;2023-03-12T12:56:16;13.30;95.00
7163;DHT22;3623;47.098;15.446;2023-03-12T12:58:59;13.20;95.50
7163;DHT22;3623;47.098;15.446;2023-03-12T13:01:30;12.50;95.60
7163;DHT22;3623;47.098;15.446;2023-03-12T13:04:01;11.90;95.50
7163;DHT22;3623;47.098;15.446;2023-03-12T13:06:52;11.10;96.20
7163;DHT22;3623;47.098;15.446;2023-03-12T13:09:24;10.80;97.00
7163;DHT22;3623;47.098;15.446;2023-03-12T13:12:17;10.20;97.20
7163;DHT22;3623;47.098;15.446;2023-03-12T13:14:46;10.50;97.50
7163;DHT22;3623;47.098;15.446;2023-03-12T13:17:25;10.80;97.90
7163;DHT22;3623;47.098;15.446;2023-03-12T13:19:58;11.00;97.10
7163;DHT22;3623;47.098;15.446;2023-03-12T13:22:43;11.20;97.50
7163;DHT22;3623;47.098;15.446;2023-03-12T13:25:25;12.00;97.40
7163;DHT22;3623;47.098;15.446;2023-03-12T13:27:59;12.50;96.30
7163;DHT22;3623;47.098;15.446;2023-03-12T13:30:45;12.20;95.90
7163;DHT22;3623;47.098;15.446;2023-03-12T13:33:15;12.00;96.50
7163;DHT22;3623;47.098;15.446;2023-03-12T13:36:01;12.30;96.70
7163;DHT22;3623;47.098;15.446;2023-03-12T13:38:37;12.60;96.70
7163;DHT22;3623;47.098;15.446;2023-03-12T13:41:06;12.90;96.80
7163;DHT22;3623;47.098;15.446;2023-03-12T13:43:48;12.90;95.90
7163;DHT22;3623;47.098;15.446;2023-03-12T13:46:38;13.10;96.10
7163;DHT22;3623;47.098;15.446;2023-03-12T13:49:12;12.80;96.50
7163;DHT22;3623;47.098;15.446;2023-03-12T13:51:46;13.20;96.80
7163;DHT22;3623;47.098;15.446;2023-03-12T13:54:24;12.30;96.10
7163;DHT22;3623;47.098;15.446;2023-03-12T13:57:11;12.20;96.70
7163;DHT22;3623;47.098;15.446;2023-03-12T13:59:43;12.00;97.00
7163;DHT22;3623;47.098;15.446;2023-03-12T14:02:18;12.30;97.10
7163;DHT22;3623;47.098;15.446;2023-03-12T14:04:46;11.90;97.30
7163;DHT22;3623;47.098;15.446;2023-03-12T14:10:11;11.20;97.70
7163;DHT22;3623;47.098;15.446;2023-03-12T14:12:52;10.60;98.20
7163;DHT22;3623;47.098;15.446;2023-03-12T14:15:26;10.30;97.00
7163;DHT22;3623;47.098;15.446;2023-03-12T14:17:58;10.70;97.50
7163;DHT22;3623;47.098;15.446;2023-03-12T14:20:26;10.80;98.50
7163;DHT22;3623;47.098;15.446;2023-03-12T14:22:57;10.60;97.90
7163;DHT22;3623;47.098;15.446;2023-03-12T14:25:32;11.10;98.70
7163;DHT22;3623;47.098;15.446;2023-03-12T14:28:04;10.90;97.40
7163;DHT22;3623;47.098;15.446;2023-03-12T14:30:43;11.00;97.30
7163;DHT22;3623;47.098;15.446;2023-03-12T14:33:14;11.00;97.50
7163;DHT22;3623;47.098;15.446;2023-03-12T14:35:45;11.00;97.60
7163;DHT22;3623;47.098;15.446;2023-03-12T14:38:19;11.00;97.20
7163;DHT22;3623;47.098;15.446;2023-03-12T14:40:53;10.90;97.60
7163;DHT22;3623;47.098;15.446;2023-03-12T14:43:25;11.10;98.00
7163;DHT22;3623;47.098;15.446;2023-03-12T14:45:56;11.10;97.50
7163;DHT22;3623;47.098;15.446;2023-03-12T14:48:27;11.00;97.70
7163;DHT22;3623;47.098;15.446;2023-03-12T14:50:55;10.80;97.60
7163;DHT22;3623;47.098;15.446;2023-03-12T14:53:25;11.10;97.70
7163;DHT22;3623;47.098;15.446;2023-03-12T14:56:00;11.20;97.30
7163;DHT22;3623;47.098;15.446;2023-03-12T14:58:30;11.10;96.90
7163;DHT22;3623;47.098;15.446;2023-03-12T15:00:58;11.00;97.00
7163;DHT22;3623;47.098;15.446;2023-03-12T15:03:26;11.30;97.40
7163;DHT22;3623;47.098;15.446;2023-03-12T15:05:55;11.40;96.60
7163;DHT22;3623;47.098;15.446;2023-03-12T15:08:23;11.10;97.20
7163;DHT22;3623;47.098;15.446;2023-03-12T15:10:54;10.80;96.50
7163;DHT22;3623;47.098;15.446;2023-03-12T15:13:23;10.70;96.80
7163;DHT22;3623;47.098;15.446;2023-03-12T15:15:53;10.80;97.10
7163;DHT22;3623;47.098;15.446;2023-03-12T15:18:24;10.50;96.80
7163;DHT22;3623;47.098;15.446;2023-03-12T15:20:52;9.90;97.70
7163;DHT22;3623;47.098;15.446;2023-03-12T15:23:22;9.60;98.30
7163;DHT22;3623;47.098;15.446;2023-03-12T15:26:07;9.70;98.70
7163;DHT22;3623;47.098;15.446;2023-03-12T15:28:35;9.70;98.10
7163;DHT22;3623;47.098;15.446;2023-03-12T15:31:07;9.70;97.90
7163;DHT22;3623;47.098;15.446;2023-03-12T15:33:36;9.70;98.30
7163;DHT22;3623;47.098;15.446;2023-03-12T15:36:14;9.80;98.20
7163;DHT22;3623;47.098;15.446;2023-03-12T15:38:46;9.60;98.40
7163;DHT22;3623;47.098;15.446;2023-03-12T15:41:17;9.40;98.10
7163;DHT22;3623;47.098;15.446;2023-03-12T15:43:49;9.40;98.10
7163;DHT22;3623;47.098;15.446;2023-03-12T15:46:20;9.30;98.10
7163;DHT22;3623;47.098;15.446;2023-03-12T15:48:50;9.10;98.20
7163;DHT22;3623;47.098;15.446;2023-03-12T15:51:32;9.10;98.10
7163;DHT22;3623;47.098;15.446;2023-03-12T15:54:05;9.10;98.20
7163;DHT22;3623;47.098;15.446;2023-03-12T15:56:34;9.20;98.00
7163;DHT22;3623;47.098;15.446;2023-03-12T15:59:04;9.30;98.20
7163;DHT22;3623;47.098;15.446;2023-03-12T16:01:47;9.20;98.20
7163;DHT22;3623;47.098;15.446;2023-03-12T16:04:16;9.40;98.00
7163;DHT22;3623;47.098;15.446;2023-03-12T16:06:44;9.40;98.00
7163;DHT22;3623;47.098;15.446;2023-03-12T16:09:16;9.10;97.80
7163;DHT22;3623;47.098;15.446;2023-03-12T16:11:46;9.10;98.20
7163;DHT22;3623;47.098;15.446;2023-03-12T16:14:16;9.10;98.60
7163;DHT22;3623;47.098;15.446;2023-03-12T16:16:46;8.90;98.30
7163;DHT22;3623;47.098;15.446;2023-03-12T16:19:13;8.70;98.60
7163;DHT22;3623;47.098;15.446;2023-03-12T16:21:41;8.60;98.90
7163;DHT22;3623;47.098;15.446;2023-03-12T16:24:09;8.50;98.70
7163;DHT22;3623;47.098;15.446;2023-03-12T16:26:44;8.40;98.80
7163;DHT22;3623;47.098;15.446;2023-03-12T16:29:15;8.30;99.20
7163;DHT22;3623;47.098;15.446;2023-03-12T16:31:43;8.40;99.40
7163;DHT22;3623;47.098;15.446;2023-03-12T16:34:11;8.30;99.50